createdAt,value
2023-05-19T00:00:37.185Z,100.00
2023-05-19T00:01:37.659Z,100.00
2023-05-19T00:02:34.594Z,100.00
2023-05-19T00:03:31.866Z,100.00
2023-05-19T00:04:28.746Z,100.00
2023-05-19T00:05:25.308Z,100.00
2023-05-19T00:06:23.747Z,100.00
2023-05-19T00:07:23.618Z,100.00
2023-05-19T00:08:20.738Z,100.00
2023-05-19T00:09:17.546Z,100.00
2023-05-19T00:10:14.505Z,100.00
2023-05-19T00:11:11.284Z,100.00
2023-05-19T00:12:08.147Z,100.00
2023-05-19T00:13:04.849Z,100.00
2023-05-19T00:14:01.573Z,100.00
2023-05-19T00:14:58.172Z,100.00
2023-05-19T00:15:54.974Z,100.00
2023-05-19T00:16:51.736Z,100.00
2023-05-19T00:17:48.913Z,100.00
2023-05-19T00:18:45.478Z,100.00
2023-05-19T00:19:42.023Z,100.00
2023-05-19T00:20:39.002Z,100.00
2023-05-19T00:21:35.669Z,100.00
2023-05-19T00:22:32.208Z,100.00
2023-05-19T00:23:28.701Z,100.00
2023-05-19T00:24:25.338Z,100.00
2023-05-19T00:25:21.827Z,100.00
2023-05-19T00:26:18.425Z,100.00
2023-05-19T00:27:14.946Z,100.00
2023-05-19T00:28:11.733Z,100.00
2023-05-19T00:29:08.244Z,100.00
2023-05-19T00:30:05.251Z,100.00
2023-05-19T00:31:02.276Z,100.00
2023-05-19T00:31:58.843Z,100.00
2023-05-19T00:32:55.714Z,100.00
2023-05-19T00:33:52.418Z,100.00
2023-05-19T00:34:49.538Z,100.00
2023-05-19T00:35:46.041Z,100.00
2023-05-19T00:36:42.589Z,100.00
2023-05-19T00:37:39.036Z,100.00
2023-05-19T00:38:36.475Z,100.00
2023-05-19T00:39:33.101Z,100.00
2023-05-19T00:40:30.913Z,100.00
2023-05-19T00:41:27.546Z,100.00
2023-05-19T00:42:24.233Z,100.00
2023-05-19T00:43:20.770Z,100.00
2023-05-19T00:44:17.353Z,100.00
2023-05-19T00:45:13.834Z,100.00
2023-05-19T00:46:11.209Z,100.00
2023-05-19T00:47:08.558Z,100.00
2023-05-19T00:48:05.348Z,100.00
2023-05-19T00:49:01.855Z,100.00
2023-05-19T00:49:58.317Z,100.00
2023-05-19T00:51:02.431Z,100.00
2023-05-19T00:51:59.684Z,100.00
2023-05-19T00:52:56.498Z,100.00
2023-05-19T00:53:53.267Z,100.00
2023-05-19T00:54:51.480Z,100.00
2023-05-19T00:55:48.106Z,100.00
2023-05-19T00:56:44.642Z,100.00
2023-05-19T00:57:42.775Z,100.00
2023-05-19T00:58:39.352Z,100.00
2023-05-19T00:59:36.329Z,100.00
2023-05-19T01:00:33.134Z,100.00
2023-05-19T01:01:30.148Z,100.00
2023-05-19T01:02:29.824Z,100.00
2023-05-19T01:03:26.705Z,100.00
2023-05-19T01:04:25.644Z,100.00
2023-05-19T01:05:22.387Z,100.00
2023-05-19T01:06:22.229Z,100.00
2023-05-19T01:07:20.026Z,100.00
2023-05-19T01:08:16.572Z,100.00
2023-05-19T01:09:13.091Z,100.00
2023-05-19T01:10:10.206Z,100.00
2023-05-19T01:11:07.340Z,100.00
2023-05-19T01:12:04.109Z,100.00
2023-05-19T01:13:01.808Z,100.00
2023-05-19T01:13:58.385Z,100.00
2023-05-19T01:14:55.231Z,100.00
2023-05-19T01:16:07.300Z,100.00
2023-05-19T01:17:06.943Z,100.00
2023-05-19T01:18:14.166Z,100.00
2023-05-19T01:19:19.734Z,100.00
2023-05-19T01:20:27.086Z,100.00
2023-05-19T01:21:36.561Z,100.00
2023-05-19T01:22:33.194Z,100.00
2023-05-19T01:23:38.488Z,100.00
2023-05-19T01:24:54.867Z,100.00
2023-05-19T01:26:16.200Z,100.00
2023-05-19T01:27:22.705Z,100.00
2023-05-19T01:28:25.370Z,100.00
2023-05-19T01:29:21.882Z,100.00
2023-05-19T01:30:23.401Z,100.00
2023-05-19T01:31:23.924Z,100.00
2023-05-19T01:32:21.123Z,100.00
2023-05-19T01:33:18.176Z,100.00
2023-05-19T01:34:16.467Z,100.00
2023-05-19T01:35:15.566Z,100.00
2023-05-19T01:36:12.380Z,100.00
2023-05-19T01:37:09.792Z,100.00
2023-05-19T01:38:08.597Z,100.00
2023-05-19T01:39:05.406Z,100.00
2023-05-19T01:40:02.524Z,100.00
2023-05-19T01:40:59.889Z,100.00
2023-05-19T01:41:58.278Z,100.00
2023-05-19T01:42:57.550Z,100.00
2023-05-19T01:43:54.679Z,100.00
2023-05-19T01:44:51.749Z,100.00
2023-05-19T01:45:49.018Z,100.00
2023-05-19T01:46:45.878Z,100.00
2023-05-19T01:47:43.272Z,100.00
2023-05-19T01:48:39.904Z,100.00
2023-05-19T01:49:36.409Z,100.00
2023-05-19T01:50:33.684Z,100.00
2023-05-19T01:51:31.458Z,100.00
2023-05-19T01:52:27.941Z,100.00
2023-05-19T01:53:24.708Z,100.00
2023-05-19T01:54:21.241Z,100.00
2023-05-19T01:55:17.936Z,100.00
2023-05-19T01:56:16.965Z,100.00
2023-05-19T01:57:22.984Z,100.00
2023-05-19T01:58:25.506Z,100.00
2023-05-19T01:59:27.889Z,100.00
2023-05-19T02:00:27.424Z,100.00
2023-05-19T02:01:31.002Z,100.00
2023-05-19T02:02:37.386Z,100.00
2023-05-19T02:03:52.560Z,100.00
2023-05-19T02:04:56.119Z,100.00
2023-05-19T02:05:57.158Z,100.00
2023-05-19T02:06:53.696Z,100.00
2023-05-19T02:07:58.299Z,100.00
2023-05-19T02:09:08.143Z,100.00
2023-05-19T02:10:06.265Z,100.00
2023-05-19T02:11:05.340Z,100.00
2023-05-19T02:12:10.236Z,100.00
2023-05-19T02:13:08.646Z,100.00
2023-05-19T02:14:31.737Z,100.00
2023-05-19T02:15:30.207Z,100.00
2023-05-19T02:16:28.663Z,100.00
2023-05-19T02:17:27.372Z,100.00
2023-05-19T02:18:25.178Z,100.00
2023-05-19T02:19:23.600Z,100.00
2023-05-19T02:20:22.237Z,100.00
2023-05-19T02:21:18.828Z,100.00
2023-05-19T02:22:15.343Z,100.00
2023-05-19T02:23:11.959Z,100.00
2023-05-19T02:24:08.478Z,100.00
2023-05-19T02:25:05.280Z,100.00
2023-05-19T02:26:02.049Z,100.00
2023-05-19T02:26:58.544Z,100.00
2023-05-19T02:27:55.096Z,100.00
2023-05-19T02:28:51.623Z,100.00
2023-05-19T02:29:48.176Z,100.00
2023-05-19T02:30:44.786Z,100.00
2023-05-19T02:31:41.331Z,100.00
2023-05-19T02:32:37.973Z,100.00
2023-05-19T02:33:34.997Z,100.00
2023-05-19T02:34:31.616Z,100.00
2023-05-19T02:35:28.182Z,100.00
2023-05-19T02:36:26.586Z,100.00
2023-05-19T02:37:28.517Z,100.00
2023-05-19T02:38:25.276Z,100.00
2023-05-19T02:39:22.010Z,100.00
2023-05-19T02:40:18.686Z,100.00
2023-05-19T02:41:15.290Z,100.00
2023-05-19T02:42:12.498Z,100.00
2023-05-19T02:43:09.052Z,100.00
2023-05-19T02:44:05.836Z,100.00
2023-05-19T02:45:02.387Z,100.00
2023-05-19T02:45:58.940Z,100.00
2023-05-19T02:46:55.431Z,100.00
2023-05-19T02:47:52.007Z,100.00
2023-05-19T02:48:48.671Z,100.00
2023-05-19T02:49:45.308Z,100.00
2023-05-19T02:50:43.017Z,100.00
2023-05-19T02:51:39.502Z,100.00
2023-05-19T02:52:36.018Z,100.00
2023-05-19T02:53:32.532Z,100.00
2023-05-19T02:54:30.074Z,100.00
2023-05-19T02:55:26.863Z,100.00
2023-05-19T02:56:23.433Z,100.00
2023-05-19T02:57:20.052Z,100.00
2023-05-19T02:58:16.928Z,100.00
2023-05-19T02:59:13.409Z,100.00
2023-05-19T03:00:10.064Z,100.00
2023-05-19T03:01:06.768Z,100.00
2023-05-19T03:02:03.402Z,100.00
2023-05-19T03:03:02.819Z,100.00
2023-05-19T03:03:59.751Z,100.00
2023-05-19T03:04:56.368Z,100.00
2023-05-19T03:05:53.770Z,100.00
2023-05-19T03:06:50.319Z,100.00
2023-05-19T03:07:47.582Z,100.00
2023-05-19T03:08:44.270Z,100.00
2023-05-19T03:09:40.900Z,100.00
2023-05-19T03:10:37.417Z,100.00
2023-05-19T03:11:33.887Z,100.00
2023-05-19T03:12:30.426Z,100.00
2023-05-19T03:13:27.001Z,100.00
2023-05-19T03:14:24.674Z,100.00
2023-05-19T03:15:23.307Z,100.00
2023-05-19T03:16:20.208Z,100.00
2023-05-19T03:17:16.820Z,100.00
2023-05-19T03:18:13.410Z,100.00
2023-05-19T03:19:10.456Z,100.00
2023-05-19T03:20:07.792Z,100.00
2023-05-19T03:21:04.268Z,100.00
2023-05-19T03:22:00.747Z,100.00
2023-05-19T03:22:58.044Z,100.00
2023-05-19T03:23:57.422Z,100.00
2023-05-19T03:24:54.393Z,100.00
2023-05-19T03:25:50.983Z,100.00
2023-05-19T03:26:47.905Z,100.00
2023-05-19T03:27:44.437Z,100.00
2023-05-19T03:28:41.004Z,100.00
2023-05-19T03:29:37.630Z,100.00
2023-05-19T03:30:34.381Z,100.00
2023-05-19T03:31:31.259Z,100.00
2023-05-19T03:32:27.850Z,100.00
2023-05-19T03:33:24.611Z,100.00
2023-05-19T03:34:22.467Z,100.00
2023-05-19T03:35:19.073Z,100.00
2023-05-19T03:36:15.610Z,100.00
2023-05-19T03:37:12.994Z,100.00
2023-05-19T03:38:09.490Z,100.00
2023-05-19T03:39:06.919Z,100.00
2023-05-19T03:40:05.441Z,100.00
2023-05-19T03:41:01.946Z,100.00
2023-05-19T03:41:58.464Z,100.00
2023-05-19T03:42:54.986Z,100.00
2023-05-19T03:43:51.495Z,100.00
2023-05-19T03:44:48.450Z,100.00
2023-05-19T03:45:45.045Z,100.00
2023-05-19T03:46:41.548Z,100.00
2023-05-19T03:47:38.138Z,100.00
2023-05-19T03:48:34.695Z,100.00
2023-05-19T03:49:31.195Z,100.00
2023-05-19T03:50:29.204Z,100.00
2023-05-19T03:51:26.086Z,100.00
2023-05-19T03:52:22.551Z,100.00
2023-05-19T03:53:19.049Z,100.00
2023-05-19T03:54:15.581Z,100.00
2023-05-19T03:55:12.632Z,100.00
2023-05-19T03:56:11.743Z,100.00
2023-05-19T03:57:09.174Z,100.00
2023-05-19T03:58:06.431Z,100.00
2023-05-19T03:59:02.913Z,100.00
2023-05-19T03:59:59.795Z,100.00
2023-05-19T04:00:56.308Z,100.00
2023-05-19T04:01:52.993Z,100.00
2023-05-19T04:02:49.774Z,100.00
2023-05-19T04:03:46.779Z,100.00
2023-05-19T04:04:43.378Z,100.00
2023-05-19T04:05:39.931Z,100.00
2023-05-19T04:06:37.798Z,100.00
2023-05-19T04:07:34.354Z,100.00
2023-05-19T04:08:30.846Z,100.00
2023-05-19T04:09:27.432Z,100.00
2023-05-19T04:10:23.931Z,100.00
2023-05-19T04:11:21.493Z,100.00
2023-05-19T04:12:18.015Z,100.00
2023-05-19T04:13:14.532Z,100.00
2023-05-19T04:14:13.316Z,100.00
2023-05-19T04:15:12.056Z,100.00
2023-05-19T04:16:08.910Z,100.00
2023-05-19T04:17:05.597Z,100.00
2023-05-19T04:18:02.151Z,100.00
2023-05-19T04:18:58.762Z,100.00
2023-05-19T04:19:55.586Z,100.00
2023-05-19T04:20:52.168Z,100.00
2023-05-19T04:21:48.640Z,100.00
2023-05-19T04:22:45.146Z,100.00
2023-05-19T04:23:41.746Z,100.00
2023-05-19T04:24:38.320Z,100.00
2023-05-19T04:25:36.357Z,100.00
2023-05-19T04:26:34.106Z,100.00
2023-05-19T04:27:32.153Z,100.00
2023-05-19T04:28:28.941Z,100.00
2023-05-19T04:29:25.459Z,100.00
2023-05-19T04:30:22.803Z,100.00
2023-05-19T04:31:21.723Z,100.00
2023-05-19T04:32:18.577Z,100.00
2023-05-19T04:33:15.143Z,99.95
2023-05-19T04:34:11.735Z,99.84
2023-05-19T04:35:08.449Z,99.48
2023-05-19T04:36:12.687Z,98.88
2023-05-19T04:37:12.524Z,98.44
2023-05-19T04:38:10.062Z,97.99
2023-05-19T04:39:07.556Z,97.15
2023-05-19T04:40:06.013Z,96.82
2023-05-19T04:41:03.036Z,96.63
2023-05-19T04:42:00.090Z,96.35
2023-05-19T04:42:57.289Z,95.91
2023-05-19T04:43:53.819Z,96.04
2023-05-19T04:44:51.827Z,95.88
2023-05-19T04:45:50.283Z,95.60
2023-05-19T04:46:46.850Z,96.89
2023-05-19T04:47:44.376Z,96.94
2023-05-19T04:48:41.339Z,97.33
2023-05-19T04:49:40.724Z,97.48
2023-05-19T04:50:38.658Z,96.87
2023-05-19T04:51:35.795Z,95.89
2023-05-19T04:52:32.298Z,95.35
2023-05-19T04:53:29.327Z,95.45
2023-05-19T04:54:26.539Z,95.09
2023-05-19T04:55:23.146Z,94.05
2023-05-19T04:56:19.656Z,93.79
2023-05-19T04:57:16.188Z,93.37
2023-05-19T04:58:12.783Z,94.27
2023-05-19T04:59:10.113Z,94.42
2023-05-19T05:00:09.112Z,93.93
2023-05-19T05:01:05.925Z,94.73
2023-05-19T05:02:02.542Z,94.91
2023-05-19T05:02:59.115Z,95.15
2023-05-19T05:03:55.997Z,95.16
2023-05-19T05:04:54.563Z,94.97
2023-05-19T05:05:51.480Z,94.77
2023-05-19T05:06:48.803Z,94.15
2023-05-19T05:07:46.071Z,94.15
2023-05-19T05:08:42.691Z,94.65
2023-05-19T05:09:39.294Z,95.76
2023-05-19T05:10:35.827Z,96.01
2023-05-19T05:11:32.436Z,95.91
2023-05-19T05:12:29.102Z,95.43
2023-05-19T05:13:25.749Z,94.75
2023-05-19T05:14:22.483Z,93.97
2023-05-19T05:15:19.244Z,92.79
2023-05-19T05:16:15.997Z,93.24
2023-05-19T05:17:13.782Z,94.07
2023-05-19T05:18:10.627Z,94.60
2023-05-19T05:19:07.653Z,95.30
2023-05-19T05:20:06.300Z,96.21
2023-05-19T05:21:03.366Z,96.45
2023-05-19T05:22:00.359Z,96.63
2023-05-19T05:22:58.048Z,95.84
2023-05-19T05:23:54.825Z,94.89
2023-05-19T05:24:51.478Z,95.23
2023-05-19T05:25:48.116Z,95.35
2023-05-19T05:26:44.718Z,94.92
2023-05-19T05:27:41.257Z,94.35
2023-05-19T05:28:37.733Z,94.42
2023-05-19T05:29:34.209Z,94.86
2023-05-19T05:30:31.015Z,94.94
2023-05-19T05:31:27.538Z,95.25
2023-05-19T05:32:24.106Z,95.12
2023-05-19T05:33:22.471Z,95.04
2023-05-19T05:34:19.114Z,94.25
2023-05-19T05:35:16.157Z,93.33
2023-05-19T05:36:13.756Z,93.72
2023-05-19T05:37:11.713Z,92.86
2023-05-19T05:38:09.056Z,93.27
2023-05-19T05:39:05.754Z,93.64
2023-05-19T05:40:02.279Z,93.50
2023-05-19T05:40:58.882Z,93.43
2023-05-19T05:41:55.512Z,92.17
2023-05-19T05:42:52.230Z,92.88
2023-05-19T05:43:48.833Z,91.91
2023-05-19T05:44:45.420Z,90.15
2023-05-19T05:45:42.030Z,89.81
2023-05-19T05:46:38.714Z,89.20
2023-05-19T05:47:38.159Z,88.60
2023-05-19T05:48:34.907Z,89.64
2023-05-19T05:49:36.636Z,89.87
2023-05-19T05:50:33.393Z,89.40
2023-05-19T05:51:30.174Z,88.16
2023-05-19T05:52:29.701Z,87.29
2023-05-19T05:53:30.040Z,87.63
2023-05-19T05:54:26.755Z,87.52
2023-05-19T05:55:23.517Z,87.35
2023-05-19T05:56:20.874Z,88.34
2023-05-19T05:57:17.473Z,87.66
2023-05-19T05:58:15.662Z,86.61
2023-05-19T05:59:12.130Z,86.38
2023-05-19T06:00:15.894Z,87.08
2023-05-19T06:01:12.560Z,86.53
2023-05-19T06:02:11.422Z,86.75
2023-05-19T06:03:08.187Z,86.64
2023-05-19T06:04:04.885Z,85.54
2023-05-19T06:05:02.566Z,85.57
2023-05-19T06:05:59.348Z,86.57
2023-05-19T06:07:01.250Z,86.92
2023-05-19T06:07:57.890Z,87.51
2023-05-19T06:08:54.380Z,86.65
2023-05-19T06:09:50.901Z,86.34
2023-05-19T06:10:47.613Z,86.11
2023-05-19T06:11:44.246Z,85.67
2023-05-19T06:12:40.891Z,85.74
2023-05-19T06:13:37.811Z,85.90
2023-05-19T06:14:34.331Z,84.49
2023-05-19T06:15:30.939Z,85.17
2023-05-19T06:16:27.985Z,86.14
2023-05-19T06:17:24.537Z,86.91
2023-05-19T06:18:21.060Z,85.02
2023-05-19T06:19:18.904Z,83.21
2023-05-19T06:20:16.318Z,82.86
2023-05-19T06:21:13.559Z,83.54
2023-05-19T06:22:10.169Z,84.63
2023-05-19T06:23:06.682Z,83.75
2023-05-19T06:24:03.285Z,82.51
2023-05-19T06:24:59.861Z,83.77
2023-05-19T06:25:56.759Z,83.11
2023-05-19T06:26:53.285Z,83.05
2023-05-19T06:27:49.882Z,83.27
2023-05-19T06:28:46.362Z,82.71
2023-05-19T06:29:42.910Z,83.12
2023-05-19T06:30:39.391Z,81.57
2023-05-19T06:31:36.066Z,81.62
2023-05-19T06:32:32.661Z,82.40
2023-05-19T06:33:29.458Z,83.78
2023-05-19T06:34:26.950Z,83.11
2023-05-19T06:35:23.486Z,81.90
2023-05-19T06:36:20.026Z,82.09
2023-05-19T06:37:19.649Z,82.22
2023-05-19T06:38:16.190Z,82.24
2023-05-19T06:39:12.752Z,81.42
2023-05-19T06:40:09.653Z,81.67
2023-05-19T06:41:06.661Z,81.49
2023-05-19T06:42:03.207Z,82.62
2023-05-19T06:42:59.739Z,82.84
2023-05-19T06:43:56.571Z,82.47
2023-05-19T06:44:53.395Z,82.02
2023-05-19T06:45:49.887Z,82.56
2023-05-19T06:46:46.485Z,83.25
2023-05-19T06:47:44.519Z,82.46
2023-05-19T06:48:41.141Z,81.54
2023-05-19T06:49:37.791Z,81.85
2023-05-19T06:50:34.643Z,81.37
2023-05-19T06:51:31.550Z,81.24
2023-05-19T06:52:28.132Z,80.00
2023-05-19T06:53:24.638Z,80.46
2023-05-19T06:54:21.150Z,81.54
2023-05-19T06:55:17.707Z,83.03
2023-05-19T06:56:15.577Z,80.78
2023-05-19T06:57:12.098Z,80.54
2023-05-19T06:58:08.753Z,79.65
2023-05-19T06:59:05.298Z,80.03
2023-05-19T07:00:01.795Z,80.17
2023-05-19T07:00:58.351Z,80.37
2023-05-19T07:01:55.103Z,79.86
2023-05-19T07:02:52.056Z,77.79
2023-05-19T07:03:48.847Z,75.59
2023-05-19T07:04:45.557Z,76.13
2023-05-19T07:05:42.098Z,75.38
2023-05-19T07:06:38.657Z,75.06
2023-05-19T07:07:35.164Z,76.83
2023-05-19T07:08:31.704Z,76.98
2023-05-19T07:09:28.193Z,76.77
2023-05-19T07:10:24.666Z,77.02
2023-05-19T07:11:21.789Z,77.91
2023-05-19T07:12:18.327Z,76.69
2023-05-19T07:13:14.941Z,76.72
2023-05-19T07:14:11.770Z,77.13
2023-05-19T07:15:08.464Z,74.27
2023-05-19T07:16:05.303Z,76.40
2023-05-19T07:17:02.049Z,74.87
2023-05-19T07:17:58.941Z,76.38
2023-05-19T07:18:55.502Z,75.04
2023-05-19T07:19:52.013Z,72.78
2023-05-19T07:20:48.485Z,72.78
2023-05-19T07:21:45.419Z,72.61
2023-05-19T07:22:41.983Z,72.05
2023-05-19T07:23:38.504Z,71.52
2023-05-19T07:24:35.015Z,70.77
2023-05-19T07:25:31.496Z,72.05
2023-05-19T07:26:28.640Z,72.00
2023-05-19T07:27:25.223Z,70.75
2023-05-19T07:28:22.156Z,69.67
2023-05-19T07:29:18.840Z,70.98
2023-05-19T07:30:15.352Z,70.89
2023-05-19T07:31:11.871Z,71.43
2023-05-19T07:32:08.419Z,71.63
2023-05-19T07:33:05.006Z,71.95
2023-05-19T07:34:03.340Z,72.45
2023-05-19T07:34:59.940Z,73.45
2023-05-19T07:35:56.499Z,72.82
2023-05-19T07:36:53.065Z,72.10
2023-05-19T07:37:50.072Z,70.97
2023-05-19T07:38:47.080Z,72.79
2023-05-19T07:39:43.645Z,73.16
2023-05-19T07:40:40.210Z,73.24
2023-05-19T07:41:36.737Z,71.54
2023-05-19T07:42:33.322Z,71.16
2023-05-19T07:43:29.997Z,69.71
2023-05-19T07:44:27.286Z,71.33
2023-05-19T07:45:23.895Z,70.42
2023-05-19T07:46:20.547Z,70.47
2023-05-19T07:47:17.117Z,68.98
2023-05-19T07:48:13.928Z,69.80
2023-05-19T07:49:10.587Z,68.26
2023-05-19T07:50:07.465Z,69.36
2023-05-19T07:51:04.237Z,70.94
2023-05-19T07:52:00.954Z,70.07
2023-05-19T07:52:57.523Z,70.01
2023-05-19T07:53:54.048Z,68.93
2023-05-19T07:54:50.605Z,69.48
2023-05-19T07:55:47.209Z,68.22
2023-05-19T07:56:43.777Z,71.55
2023-05-19T07:57:40.432Z,73.39
2023-05-19T07:58:36.988Z,73.43
2023-05-19T07:59:33.501Z,74.73
2023-05-19T08:00:29.999Z,73.59
2023-05-19T08:01:26.531Z,72.73
2023-05-19T08:02:23.167Z,69.61
2023-05-19T08:03:20.797Z,69.76
2023-05-19T08:04:17.784Z,70.30
2023-05-19T08:05:14.460Z,70.37
2023-05-19T08:06:11.353Z,70.11
2023-05-19T08:07:07.946Z,70.41
2023-05-19T08:08:04.606Z,69.03
2023-05-19T08:09:01.134Z,69.25
2023-05-19T08:09:57.753Z,69.36
2023-05-19T08:10:54.384Z,70.05
2023-05-19T08:11:51.013Z,69.22
2023-05-19T08:12:47.614Z,69.46
2023-05-19T08:13:44.180Z,71.56
2023-05-19T08:14:40.741Z,71.50
2023-05-19T08:15:37.337Z,69.05
2023-05-19T08:16:33.853Z,65.68
2023-05-19T08:17:30.500Z,68.83
2023-05-19T08:18:27.139Z,67.35
2023-05-19T08:19:23.836Z,64.65
2023-05-19T08:20:20.652Z,63.88
2023-05-19T08:21:17.279Z,65.19
2023-05-19T08:22:13.762Z,65.18
2023-05-19T08:23:10.741Z,66.39
2023-05-19T08:24:07.373Z,62.70
2023-05-19T08:25:04.841Z,64.27
2023-05-19T08:26:02.331Z,64.37
2023-05-19T08:26:58.857Z,62.82
2023-05-19T08:27:55.418Z,63.12
2023-05-19T08:28:51.968Z,64.54
2023-05-19T08:29:48.570Z,61.20
2023-05-19T08:30:45.110Z,63.23
2023-05-19T08:31:41.886Z,65.39
2023-05-19T08:32:38.407Z,62.33
2023-05-19T08:33:34.935Z,64.59
2023-05-19T08:34:32.311Z,66.20
2023-05-19T08:35:28.871Z,63.40
2023-05-19T08:36:25.854Z,62.67
2023-05-19T08:37:22.460Z,60.67
2023-05-19T08:38:18.950Z,63.54
2023-05-19T08:39:16.677Z,62.17
2023-05-19T08:40:16.502Z,63.21
2023-05-19T08:41:13.068Z,65.65
2023-05-19T08:42:12.277Z,64.17
2023-05-19T08:43:08.785Z,66.31
2023-05-19T08:44:05.389Z,62.85
2023-05-19T08:45:02.441Z,61.15
2023-05-19T08:45:59.751Z,64.34
2023-05-19T08:46:57.158Z,56.29
2023-05-19T08:47:53.717Z,57.80
2023-05-19T08:48:53.367Z,54.96
2023-05-19T08:49:52.623Z,54.08
2023-05-19T08:50:57.927Z,49.93
2023-05-19T08:51:54.399Z,52.37
2023-05-19T08:52:53.283Z,53.00
2023-05-19T08:53:55.487Z,51.83
2023-05-19T08:55:00.922Z,50.52
2023-05-19T08:56:10.756Z,50.74
2023-05-19T08:57:07.966Z,52.18
2023-05-19T08:58:04.955Z,52.22
2023-05-19T08:59:02.140Z,51.77
2023-05-19T08:59:59.461Z,52.64
2023-05-19T09:00:56.916Z,51.88
2023-05-19T09:01:54.857Z,53.08
2023-05-19T09:03:00.987Z,54.70
2023-05-19T09:04:03.367Z,48.63
2023-05-19T09:05:00.193Z,52.06
2023-05-19T09:05:56.880Z,50.24
2023-05-19T09:06:53.648Z,49.32
2023-05-19T09:07:50.139Z,48.83
2023-05-19T09:08:47.248Z,50.48
2023-05-19T09:09:44.197Z,52.03
2023-05-19T09:10:40.995Z,50.12
2023-05-19T09:11:37.839Z,51.86
2023-05-19T09:12:34.394Z,51.45
2023-05-19T09:13:31.149Z,51.72
2023-05-19T09:14:28.128Z,48.44
2023-05-19T09:15:26.757Z,48.57
2023-05-19T09:16:23.455Z,49.99
2023-05-19T09:17:19.938Z,48.70
2023-05-19T09:18:16.490Z,47.83
2023-05-19T09:19:15.599Z,50.71
2023-05-19T09:20:12.287Z,50.07
2023-05-19T09:21:10.368Z,48.57
2023-05-19T09:22:07.215Z,48.09
2023-05-19T09:23:03.725Z,49.21
2023-05-19T09:24:06.922Z,49.35
2023-05-19T09:25:03.531Z,52.00
2023-05-19T09:26:04.484Z,48.02
2023-05-19T09:27:01.006Z,51.04
2023-05-19T09:27:57.807Z,48.80
2023-05-19T09:28:58.146Z,47.83
2023-05-19T09:29:54.652Z,47.16
2023-05-19T09:31:04.411Z,48.21
2023-05-19T09:32:04.325Z,49.08
2023-05-19T09:33:01.420Z,49.37
2023-05-19T09:33:57.951Z,48.96
2023-05-19T09:34:55.090Z,51.57
2023-05-19T09:35:51.769Z,48.23
2023-05-19T09:36:53.468Z,46.54
2023-05-19T09:37:50.385Z,48.24
2023-05-19T09:38:46.940Z,48.18
2023-05-19T09:39:49.184Z,50.10
2023-05-19T09:40:45.792Z,47.10
2023-05-19T09:41:42.591Z,50.73
2023-05-19T09:42:39.383Z,49.44
2023-05-19T09:43:36.574Z,50.18
2023-05-19T09:44:35.234Z,47.71
2023-05-19T09:45:31.935Z,50.02
2023-05-19T09:46:30.260Z,49.30
2023-05-19T09:47:27.986Z,47.32
2023-05-19T09:48:26.115Z,48.11
2023-05-19T09:49:24.108Z,49.83
2023-05-19T09:50:20.593Z,45.67
2023-05-19T09:51:17.608Z,46.75
2023-05-19T09:52:16.257Z,46.66
2023-05-19T09:53:14.222Z,48.25
2023-05-19T09:54:14.863Z,47.27
2023-05-19T09:55:12.824Z,49.91
2023-05-19T09:56:10.193Z,50.06
2023-05-19T09:57:08.598Z,49.70
2023-05-19T09:58:06.686Z,45.84
2023-05-19T09:59:03.821Z,48.26
2023-05-19T10:00:00.688Z,46.37
2023-05-19T10:00:58.449Z,47.32
2023-05-19T10:01:56.509Z,49.28
2023-05-19T10:02:53.987Z,49.70
2023-05-19T10:03:51.122Z,47.40
2023-05-19T10:04:48.353Z,47.65
2023-05-19T10:05:45.258Z,47.99
2023-05-19T10:06:41.878Z,50.34
2023-05-19T10:07:40.475Z,48.69
2023-05-19T10:08:37.769Z,49.19
2023-05-19T10:09:36.371Z,46.26
2023-05-19T10:10:33.481Z,45.39
2023-05-19T10:11:30.746Z,47.19
2023-05-19T10:12:27.544Z,46.49
2023-05-19T10:13:24.277Z,45.88
2023-05-19T10:14:24.636Z,48.71
2023-05-19T10:15:23.190Z,46.32
2023-05-19T10:16:22.029Z,43.76
2023-05-19T10:17:18.880Z,46.87
2023-05-19T10:18:16.155Z,44.49
2023-05-19T10:19:12.993Z,45.23
2023-05-19T10:20:11.100Z,45.07
2023-05-19T10:21:07.952Z,43.15
2023-05-19T10:22:04.956Z,45.20
2023-05-19T10:23:03.106Z,44.53
2023-05-19T10:23:59.766Z,45.17
2023-05-19T10:24:56.321Z,44.54
2023-05-19T10:25:54.302Z,44.69
2023-05-19T10:27:11.890Z,45.18
2023-05-19T10:28:16.788Z,46.49
2023-05-19T10:29:16.018Z,45.88
2023-05-19T10:30:16.318Z,44.78
2023-05-19T10:31:17.207Z,45.06
2023-05-19T10:32:16.904Z,46.83
2023-05-19T10:33:18.174Z,46.06
2023-05-19T10:34:22.301Z,46.15
2023-05-19T10:35:24.534Z,48.38
2023-05-19T10:36:31.161Z,47.05
2023-05-19T10:37:31.269Z,46.21
2023-05-19T10:38:28.402Z,47.60
2023-05-19T10:39:35.649Z,45.41
2023-05-19T10:40:51.277Z,46.21
2023-05-19T10:41:59.586Z,47.30
2023-05-19T10:43:05.029Z,47.87
2023-05-19T10:44:01.577Z,45.33
2023-05-19T10:45:16.334Z,45.26
2023-05-19T10:46:12.991Z,45.13
2023-05-19T10:47:12.265Z,46.04
2023-05-19T10:48:14.465Z,45.81
2023-05-19T10:49:10.998Z,46.01
2023-05-19T10:51:04.785Z,47.86
2023-05-19T10:52:01.381Z,43.70
2023-05-19T10:52:58.019Z,45.39
2023-05-19T10:53:54.578Z,47.99
2023-05-19T10:54:51.510Z,45.75
2023-05-19T10:56:04.260Z,46.17
2023-05-19T10:57:00.925Z,46.86
2023-05-19T10:57:57.441Z,42.84
2023-05-19T10:58:54.031Z,45.83
2023-05-19T10:59:50.837Z,45.62
2023-05-19T11:00:47.377Z,45.53
2023-05-19T11:01:43.997Z,46.27
2023-05-19T11:02:41.555Z,45.55
2023-05-19T11:03:54.303Z,44.23
2023-05-19T11:04:51.762Z,45.81
2023-05-19T11:05:51.010Z,43.47
2023-05-19T11:06:51.581Z,45.39
2023-05-19T11:08:04.078Z,44.58
2023-05-19T11:09:01.979Z,43.96
2023-05-19T11:09:58.471Z,44.59
2023-05-19T11:10:54.978Z,45.85
2023-05-19T11:11:54.684Z,46.12
2023-05-19T11:12:52.202Z,44.35
2023-05-19T11:13:55.646Z,47.52
2023-05-19T11:14:52.687Z,46.37
2023-05-19T11:15:50.063Z,46.95
2023-05-19T11:16:47.573Z,45.55
2023-05-19T11:17:48.582Z,45.81
2023-05-19T11:18:48.399Z,45.48
2023-05-19T11:19:54.648Z,42.64
2023-05-19T11:20:58.316Z,43.58
2023-05-19T11:21:55.481Z,44.60
2023-05-19T11:23:01.862Z,43.11
2023-05-19T11:23:58.580Z,45.20
2023-05-19T11:24:55.502Z,43.92
2023-05-19T11:25:54.013Z,45.07
2023-05-19T11:26:51.892Z,45.81
2023-05-19T11:27:48.448Z,43.00
2023-05-19T11:28:47.146Z,44.77
2023-05-19T11:29:43.765Z,42.67
2023-05-19T11:30:44.580Z,45.06
2023-05-19T11:31:43.349Z,45.85
2023-05-19T11:32:42.166Z,44.33
2023-05-19T11:33:39.327Z,44.01
2023-05-19T11:34:37.568Z,43.20
2023-05-19T11:35:36.240Z,43.51
2023-05-19T11:36:33.301Z,43.44
2023-05-19T11:37:32.523Z,45.69
2023-05-19T11:38:30.183Z,43.08
2023-05-19T11:39:27.588Z,44.73
2023-05-19T11:40:24.134Z,44.75
2023-05-19T11:41:21.622Z,43.34
2023-05-19T11:42:18.171Z,43.69
2023-05-19T11:43:14.741Z,45.08
2023-05-19T11:44:11.987Z,44.67
2023-05-19T11:45:08.808Z,45.67
2023-05-19T11:46:05.398Z,46.02
2023-05-19T11:47:02.139Z,46.30
2023-05-19T11:48:02.566Z,43.34
2023-05-19T11:48:59.884Z,43.14
2023-05-19T11:49:59.323Z,43.20
2023-05-19T11:50:56.966Z,43.99
2023-05-19T11:51:54.106Z,44.01
2023-05-19T11:52:51.127Z,45.41
2023-05-19T11:53:49.783Z,43.38
2023-05-19T11:54:48.328Z,44.40
2023-05-19T11:55:48.386Z,44.13
2023-05-19T11:56:46.069Z,43.74
2023-05-19T11:58:02.844Z,43.67
2023-05-19T11:59:00.923Z,44.09
2023-05-19T11:59:57.395Z,43.94
2023-05-19T12:00:54.219Z,42.27
2023-05-19T12:01:50.711Z,44.00
2023-05-19T12:02:47.247Z,44.37
2023-05-19T12:03:44.011Z,42.75
2023-05-19T12:04:41.087Z,42.31
2023-05-19T12:05:42.897Z,42.12
2023-05-19T12:06:40.257Z,41.72
2023-05-19T12:07:37.849Z,41.51
2023-05-19T12:08:35.267Z,43.94
2023-05-19T12:09:32.445Z,43.78
2023-05-19T12:10:30.410Z,40.35
2023-05-19T12:11:28.657Z,41.70
2023-05-19T12:12:25.247Z,42.65
2023-05-19T12:13:22.803Z,43.56
2023-05-19T12:14:19.462Z,47.23
2023-05-19T12:15:18.619Z,48.50
2023-05-19T12:16:15.149Z,51.13
2023-05-19T12:17:16.627Z,52.75
2023-05-19T12:18:13.145Z,54.13